sensor_id;sensor_type;location;lat;lon;timestamp;pressure;altitude;pressure_sealevel;temperature;humidity
12775;BME280;6451;42.630;23.382;2022-12-29T00:01:27;95332.56;;;4.88;100.00
12775;BME280;6451;42.630;23.382;2022-12-29T00:03:54;95315.75;;;4.77;100.00
12775;BME280;6451;42.630;23.382;2022-12-29T00:06:21;95318.66;;;4.81;100.00
12775;BME280;6451;42.630;23.382;2022-12-29T00:08:47;95329.47;;;4.76;100.00
12775;BME280;6451;42.630;23.382;2022-12-29T00:11:16;95332.97;;;4.76;100.00
12775;BME280;6451;42.630;23.382;2022-12-29T00:13:43;95306.66;;;4.44;100.00
12775;BME280;6451;42.630;23.382;2022-12-29T00:16:30;95337.63;;;4.65;100.00
12775;BME280;6451;42.630;23.382;2022-12-29T00:18:57;95327.69;;;4.66;100.00
12775;BME280;6451;42.630;23.382;2022-12-29T00:21:25;95306.16;;;4.42;100.00
12775;BME280;6451;42.630;23.382;2022-12-29T00:24:13;95338.34;;;4.76;100.00
12775;BME280;6451;42.630;23.382;2022-12-29T00:27:10;95330.84;;;4.73;100.00
12775;BME280;6451;42.630;23.382;2022-12-29T00:29:54;95344.84;;;4.70;100.00
12775;BME280;6451;42.630;23.382;2022-12-29T00:32:40;95331.16;;;4.66;100.00
12775;BME280;6451;42.630;23.382;2022-12-29T00:35:27;95344.94;;;4.60;100.00
12775;BME280;6451;42.630;23.382;2022-12-29T00:37:57;95342.22;;;4.65;100.00
12775;BME280;6451;42.630;23.382;2022-12-29T00:40:41;95346.09;;;4.54;100.00
12775;BME280;6451;42.630;23.382;2022-12-29T00:43:26;95336.94;;;4.55;100.00
12775;BME280;6451;42.630;23.382;2022-12-29T00:46:10;95342.03;;;4.56;100.00
12775;BME280;6451;42.630;23.382;2022-12-29T00:48:38;95337.88;;;4.40;100.00
12775;BME280;6451;42.630;23.382;2022-12-29T00:51:24;95333.41;;;4.30;100.00
12775;BME280;6451;42.630;23.382;2022-12-29T00:53:51;95350.75;;;4.43;100.00
12775;BME280;6451;42.630;23.382;2022-12-29T00:56:18;95350.84;;;4.33;100.00
12775;BME280;6451;42.630;23.382;2022-12-29T00:58:45;95325.69;;;4.18;100.00
12775;BME280;6451;42.630;23.382;2022-12-29T01:01:12;95356.97;;;4.38;100.00
12775;BME280;6451;42.630;23.382;2022-12-29T01:03:40;95333.31;;;4.06;100.00
12775;BME280;6451;42.630;23.382;2022-12-29T01:06:08;95337.88;;;4.06;100.00
12775;BME280;6451;42.630;23.382;2022-12-29T01:08:35;95322.84;;;4.05;100.00
12775;BME280;6451;42.630;23.382;2022-12-29T01:11:04;95314.88;;;3.95;100.00
12775;BME280;6451;42.630;23.382;2022-12-29T01:13:31;95348.72;;;3.90;100.00
12775;BME280;6451;42.630;23.382;2022-12-29T01:15:58;95346.53;;;3.98;100.00
12775;BME280;6451;42.630;23.382;2022-12-29T01:18:26;95343.34;;;3.90;100.00
12775;BME280;6451;42.630;23.382;2022-12-29T01:20:59;95348.47;;;3.92;100.00
12775;BME280;6451;42.630;23.382;2022-12-29T01:23:27;95336.94;;;3.92;100.00
12775;BME280;6451;42.630;23.382;2022-12-29T01:25:54;95337.16;;;3.95;100.00
12775;BME280;6451;42.630;23.382;2022-12-29T01:28:22;95343.25;;;4.06;100.00
12775;BME280;6451;42.630;23.382;2022-12-29T01:30:49;95334.75;;;3.94;100.00
12775;BME280;6451;42.630;23.382;2022-12-29T01:33:15;95336.88;;;3.97;100.00
12775;BME280;6451;42.630;23.382;2022-12-29T01:35:42;95311.25;;;3.75;100.00
12775;BME280;6451;42.630;23.382;2022-12-29T01:38:10;95326.41;;;3.95;100.00
12775;BME280;6451;42.630;23.382;2022-12-29T01:40:43;95307.94;;;3.88;100.00
12775;BME280;6451;42.630;23.382;2022-12-29T01:43:11;95319.16;;;3.96;100.00
12775;BME280;6451;42.630;23.382;2022-12-29T01:45:42;95325.59;;;4.00;100.00
12775;BME280;6451;42.630;23.382;2022-12-29T01:48:11;95326.59;;;4.09;100.00
12775;BME280;6451;42.630;23.382;2022-12-29T01:50:42;95328.41;;;4.13;100.00
12775;BME280;6451;42.630;23.382;2022-12-29T01:53:14;95310.53;;;3.99;100.00
12775;BME280;6451;42.630;23.382;2022-12-29T01:55:46;95301.75;;;3.93;100.00
12775;BME280;6451;42.630;23.382;2022-12-29T01:58:15;95321.91;;;4.19;100.00
12775;BME280;6451;42.630;23.382;2022-12-29T02:00:45;95313.50;;;3.97;100.00
12775;BME280;6451;42.630;23.382;2022-12-29T02:03:13;95318.97;;;3.87;100.00
12775;BME280;6451;42.630;23.382;2022-12-29T02:05:44;95303.03;;;3.96;100.00
12775;BME280;6451;42.630;23.382;2022-12-29T02:08:14;95313.09;;;4.14;100.00
12775;BME280;6451;42.630;23.382;2022-12-29T02:10:42;95244.97;;;3.76;100.00
12775;BME280;6451;42.630;23.382;2022-12-29T02:13:09;95296.56;;;4.02;100.00
12775;BME280;6451;42.630;23.382;2022-12-29T02:15:50;95290.25;;;3.82;100.00
12775;BME280;6451;42.630;23.382;2022-12-29T02:18:32;95303.03;;;3.96;100.00
12775;BME280;6451;42.630;23.382;2022-12-29T02:24:51;95308.56;;;4.14;100.00
12775;BME280;6451;42.630;23.382;2022-12-29T02:27:41;95181.44;;;3.32;100.00
12775;BME280;6451;42.630;23.382;2022-12-29T02:30:16;95308.59;;;4.09;100.00
12775;BME280;6451;42.630;23.382;2022-12-29T02:32:51;95281.22;;;4.07;100.00
12775;BME280;6451;42.630;23.382;2022-12-29T02:35:25;95203.06;;;3.75;100.00
12775;BME280;6451;42.630;23.382;2022-12-29T02:38:03;95304.50;;;4.46;100.00
12775;BME280;6451;42.630;23.382;2022-12-29T02:40:39;95291.75;;;4.57;100.00
12775;BME280;6451;42.630;23.382;2022-12-29T02:43:15;95296.84;;;4.58;100.00
12775;BME280;6451;42.630;23.382;2022-12-29T02:45:49;95295.03;;;4.54;100.00
12775;BME280;6451;42.630;23.382;2022-12-29T02:48:24;95298.22;;;4.56;100.00
12775;BME280;6451;42.630;23.382;2022-12-29T02:50:58;95260.25;;;4.38;100.00
12775;BME280;6451;42.630;23.382;2022-12-29T02:53:29;95289.69;;;4.49;100.00
12775;BME280;6451;42.630;23.382;2022-12-29T02:56:13;95283.94;;;4.60;100.00
12775;BME280;6451;42.630;23.382;2022-12-29T02:58:40;95298.41;;;4.64;100.00
12775;BME280;6451;42.630;23.382;2022-12-29T03:01:21;95223.03;;;4.22;100.00
12775;BME280;6451;42.630;23.382;2022-12-29T03:04:03;95284.28;;;4.54;100.00
12775;BME280;6451;42.630;23.382;2022-12-29T03:06:44;95256.59;;;4.53;100.00
12775;BME280;6451;42.630;23.382;2022-12-29T03:09:28;95284.66;;;4.66;100.00
12775;BME280;6451;42.630;23.382;2022-12-29T03:12:06;95271.34;;;4.56;100.00
12775;BME280;6451;42.630;23.382;2022-12-29T03:14:47;95285.41;;;4.47;100.00
12775;BME280;6451;42.630;23.382;2022-12-29T03:17:43;95288.56;;;4.26;100.00
12775;BME280;6451;42.630;23.382;2022-12-29T03:20:16;95281.91;;;4.18;100.00
12775;BME280;6451;42.630;23.382;2022-12-29T03:22:47;95281.19;;;4.36;100.00
12775;BME280;6451;42.630;23.382;2022-12-29T03:25:22;95286.66;;;4.31;100.00
12775;BME280;6451;42.630;23.382;2022-12-29T03:27:52;95266.38;;;4.15;100.00
12775;BME280;6451;42.630;23.382;2022-12-29T03:30:21;95289.31;;;4.31;100.00
12775;BME280;6451;42.630;23.382;2022-12-29T03:32:52;95260.75;;;4.11;100.00
12775;BME280;6451;42.630;23.382;2022-12-29T03:35:25;95277.81;;;4.26;100.00
12775;BME280;6451;42.630;23.382;2022-12-29T03:37:58;95288.53;;;4.31;100.00
12775;BME280;6451;42.630;23.382;2022-12-29T03:40:27;95288.84;;;4.24;100.00
12775;BME280;6451;42.630;23.382;2022-12-29T03:42:55;95291.09;;;4.12;100.00
12775;BME280;6451;42.630;23.382;2022-12-29T03:45:22;95262.66;;;3.77;100.00
12775;BME280;6451;42.630;23.382;2022-12-29T03:47:49;95283.84;;;3.78;100.00
12775;BME280;6451;42.630;23.382;2022-12-29T03:50:17;95251.84;;;3.53;100.00
12775;BME280;6451;42.630;23.382;2022-12-29T03:52:45;95300.59;;;3.65;100.00
12775;BME280;6451;42.630;23.382;2022-12-29T03:55:12;95308.78;;;3.40;100.00
12775;BME280;6451;42.630;23.382;2022-12-29T03:57:39;95312.00;;;3.37;100.00
12775;BME280;6451;42.630;23.382;2022-12-29T04:00:07;95280.31;;;2.94;100.00
12775;BME280;6451;42.630;23.382;2022-12-29T04:02:34;95296.13;;;2.91;100.00
12775;BME280;6451;42.630;23.382;2022-12-29T04:05:01;95320.28;;;2.86;100.00
12775;BME280;6451;42.630;23.382;2022-12-29T04:07:28;95323.22;;;2.89;100.00
12775;BME280;6451;42.630;23.382;2022-12-29T04:09:56;95314.38;;;2.84;100.00
12775;BME280;6451;42.630;23.382;2022-12-29T04:12:23;95296.50;;;2.69;100.00
12775;BME280;6451;42.630;23.382;2022-12-29T04:14:50;95319.22;;;2.87;100.00
12775;BME280;6451;42.630;23.382;2022-12-29T04:17:17;95324.28;;;2.88;100.00
12775;BME280;6451;42.630;23.382;2022-12-29T04:19:44;95303.41;;;2.75;100.00
12775;BME280;6451;42.630;23.382;2022-12-29T04:22:11;95327.25;;;2.87;100.00
12775;BME280;6451;42.630;23.382;2022-12-29T04:24:38;95324.00;;;2.95;100.00
12775;BME280;6451;42.630;23.382;2022-12-29T04:27:06;95301.53;;;2.86;100.00
12775;BME280;6451;42.630;23.382;2022-12-29T04:29:34;95329.38;;;2.95;100.00
12775;BME280;6451;42.630;23.382;2022-12-29T04:32:01;95325.06;;;2.99;100.00
12775;BME280;6451;42.630;23.382;2022-12-29T04:34:28;95331.25;;;2.99;100.00
12775;BME280;6451;42.630;23.382;2022-12-29T04:36:55;95321.34;;;2.90;100.00
12775;BME280;6451;42.630;23.382;2022-12-29T04:39:22;95291.91;;;2.74;100.00
12775;BME280;6451;42.630;23.382;2022-12-29T04:41:49;95330.97;;;3.01;100.00
12775;BME280;6451;42.630;23.382;2022-12-29T04:44:17;95332.84;;;2.95;100.00
12775;BME280;6451;42.630;23.382;2022-12-29T04:46:44;95332.50;;;3.12;100.00
12775;BME280;6451;42.630;23.382;2022-12-29T04:49:10;95329.31;;;3.05;100.00
12775;BME280;6451;42.630;23.382;2022-12-29T04:51:37;95283.59;;;2.76;100.00
12775;BME280;6451;42.630;23.382;2022-12-29T04:54:04;95341.63;;;3.16;100.00
12775;BME280;6451;42.630;23.382;2022-12-29T04:56:31;95339.47;;;3.18;100.00
12775;BME280;6451;42.630;23.382;2022-12-29T04:58:58;95345.84;;;3.27;100.00
12775;BME280;6451;42.630;23.382;2022-12-29T05:01:26;95339.69;;;3.27;100.00
12775;BME280;6451;42.630;23.382;2022-12-29T05:03:53;95352.03;;;3.28;100.00
12775;BME280;6451;42.630;23.382;2022-12-29T05:06:20;95340.97;;;3.40;100.00
12775;BME280;6451;42.630;23.382;2022-12-29T05:08:47;95340.75;;;3.31;100.00
12775;BME280;6451;42.630;23.382;2022-12-29T05:11:14;95349.53;;;3.47;100.00
12775;BME280;6451;42.630;23.382;2022-12-29T05:13:44;95337.81;;;3.27;100.00
12775;BME280;6451;42.630;23.382;2022-12-29T05:16:11;95342.28;;;3.47;100.00
12775;BME280;6451;42.630;23.382;2022-12-29T05:18:39;95343.59;;;3.50;100.00
12775;BME280;6451;42.630;23.382;2022-12-29T05:21:06;95340.06;;;3.59;100.00
12775;BME280;6451;42.630;23.382;2022-12-29T05:23:33;95258.44;;;3.21;100.00
12775;BME280;6451;42.630;23.382;2022-12-29T05:25:59;95338.25;;;3.94;100.00
12775;BME280;6451;42.630;23.382;2022-12-29T05:28:27;95335.59;;;3.89;100.00
12775;BME280;6451;42.630;23.382;2022-12-29T05:30:54;95340.50;;;4.16;100.00
12775;BME280;6451;42.630;23.382;2022-12-29T05:33:21;95330.88;;;4.10;100.00
12775;BME280;6451;42.630;23.382;2022-12-29T05:35:49;95334.22;;;4.26;100.00
12775;BME280;6451;42.630;23.382;2022-12-29T05:38:16;95326.41;;;4.29;100.00
12775;BME280;6451;42.630;23.382;2022-12-29T05:40:43;95323.78;;;4.24;100.00
12775;BME280;6451;42.630;23.382;2022-12-29T05:43:10;95340.38;;;4.31;100.00
12775;BME280;6451;42.630;23.382;2022-12-29T05:45:38;95340.38;;;4.31;100.00
12775;BME280;6451;42.630;23.382;2022-12-29T05:48:05;95349.66;;;4.15;100.00
12775;BME280;6451;42.630;23.382;2022-12-29T05:50:32;95344.38;;;4.34;100.00
12775;BME280;6451;42.630;23.382;2022-12-29T05:53:00;95346.56;;;4.32;100.00
12775;BME280;6451;42.630;23.382;2022-12-29T05:55:27;95350.22;;;4.41;100.00
12775;BME280;6451;42.630;23.382;2022-12-29T05:57:54;95335.88;;;4.22;100.00
12775;BME280;6451;42.630;23.382;2022-12-29T06:00:21;95352.53;;;4.24;100.00
12775;BME280;6451;42.630;23.382;2022-12-29T06:02:47;95361.63;;;4.28;100.00
12775;BME280;6451;42.630;23.382;2022-12-29T06:05:14;95360.59;;;4.24;100.00
12775;BME280;6451;42.630;23.382;2022-12-29T06:07:42;95362.41;;;4.28;100.00
12775;BME280;6451;42.630;23.382;2022-12-29T06:10:11;95361.78;;;4.41;100.00
12775;BME280;6451;42.630;23.382;2022-12-29T06:12:38;95369.50;;;4.48;100.00
12775;BME280;6451;42.630;23.382;2022-12-29T06:15:06;95369.31;;;4.39;100.00
12775;BME280;6451;42.630;23.382;2022-12-29T06:17:33;95246.81;;;3.75;100.00
12775;BME280;6451;42.630;23.382;2022-12-29T06:20:00;95365.28;;;4.37;100.00
12775;BME280;6451;42.630;23.382;2022-12-29T06:22:27;95291.22;;;3.97;100.00
12775;BME280;6451;42.630;23.382;2022-12-29T06:24:54;95349.03;;;4.52;100.00
12775;BME280;6451;42.630;23.382;2022-12-29T06:27:22;95360.25;;;4.59;100.00
12775;BME280;6451;42.630;23.382;2022-12-29T06:29:49;95355.53;;;4.75;100.00
12775;BME280;6451;42.630;23.382;2022-12-29T06:32:16;95368.41;;;4.83;100.00
12775;BME280;6451;42.630;23.382;2022-12-29T06:34:43;95366.53;;;4.79;100.00
12775;BME280;6451;42.630;23.382;2022-12-29T06:37:11;95333.13;;;4.61;100.00
12775;BME280;6451;42.630;23.382;2022-12-29T06:39:38;95352.66;;;5.19;100.00
12775;BME280;6451;42.630;23.382;2022-12-29T06:42:05;95364.44;;;5.47;100.00
12775;BME280;6451;42.630;23.382;2022-12-29T06:44:33;95368.28;;;5.41;100.00
12775;BME280;6451;42.630;23.382;2022-12-29T06:47:01;95357.09;;;5.53;100.00
12775;BME280;6451;42.630;23.382;2022-12-29T06:49:27;95357.38;;;5.51;100.00
12775;BME280;6451;42.630;23.382;2022-12-29T06:51:54;95343.09;;;5.32;100.00
12775;BME280;6451;42.630;23.382;2022-12-29T06:54:23;95351.66;;;5.34;100.00
12775;BME280;6451;42.630;23.382;2022-12-29T06:56:50;95368.13;;;5.75;100.00
12775;BME280;6451;42.630;23.382;2022-12-29T06:59:17;95361.75;;;5.47;100.00
12775;BME280;6451;42.630;23.382;2022-12-29T07:01:45;95363.25;;;5.35;100.00
12775;BME280;6451;42.630;23.382;2022-12-29T07:04:12;95368.59;;;5.16;100.00
12775;BME280;6451;42.630;23.382;2022-12-29T07:06:39;95355.00;;;5.02;100.00
12775;BME280;6451;42.630;23.382;2022-12-29T07:09:07;95377.75;;;5.15;100.00
12775;BME280;6451;42.630;23.382;2022-12-29T07:11:34;95374.13;;;5.00;100.00
12775;BME280;6451;42.630;23.382;2022-12-29T07:14:01;95379.69;;;5.09;100.00
12775;BME280;6451;42.630;23.382;2022-12-29T07:16:32;95375.09;;;5.10;100.00
12775;BME280;6451;42.630;23.382;2022-12-29T07:19:01;95378.63;;;5.05;100.00
12775;BME280;6451;42.630;23.382;2022-12-29T07:21:28;95367.78;;;5.15;100.00
12775;BME280;6451;42.630;23.382;2022-12-29T07:23:55;95340.63;;;5.12;100.00
12775;BME280;6451;42.630;23.382;2022-12-29T07:26:22;95366.66;;;5.21;100.00
12775;BME280;6451;42.630;23.382;2022-12-29T07:28:49;95375.47;;;4.98;100.00
12775;BME280;6451;42.630;23.382;2022-12-29T07:31:19;95356.44;;;4.94;100.00
12775;BME280;6451;42.630;23.382;2022-12-29T07:33:46;95342.44;;;5.21;100.00
12775;BME280;6451;42.630;23.382;2022-12-29T07:36:17;95369.56;;;5.44;100.00
12775;BME280;6451;42.630;23.382;2022-12-29T07:38:44;95377.09;;;5.47;100.00
12775;BME280;6451;42.630;23.382;2022-12-29T07:41:10;95369.88;;;5.42;100.00
12775;BME280;6451;42.630;23.382;2022-12-29T07:43:37;95365.97;;;5.53;100.00
12775;BME280;6451;42.630;23.382;2022-12-29T07:46:04;95368.41;;;5.31;100.00
12775;BME280;6451;42.630;23.382;2022-12-29T07:48:31;95376.22;;;5.51;100.00
12775;BME280;6451;42.630;23.382;2022-12-29T07:51:01;95358.31;;;5.42;100.00
12775;BME280;6451;42.630;23.382;2022-12-29T07:53:29;95376.41;;;5.60;100.00
12775;BME280;6451;42.630;23.382;2022-12-29T07:55:56;95380.09;;;5.45;100.00
12775;BME280;6451;42.630;23.382;2022-12-29T07:58:23;95359.06;;;5.23;100.00
12775;BME280;6451;42.630;23.382;2022-12-29T08:00:53;95381.25;;;5.58;100.00
12775;BME280;6451;42.630;23.382;2022-12-29T08:03:20;95378.06;;;5.32;100.00
12775;BME280;6451;42.630;23.382;2022-12-29T08:05:47;95389.00;;;5.41;100.00
12775;BME280;6451;42.630;23.382;2022-12-29T08:08:14;95375.94;;;5.29;100.00
12775;BME280;6451;42.630;23.382;2022-12-29T08:10:43;95377.56;;;5.30;100.00
12775;BME280;6451;42.630;23.382;2022-12-29T08:13:11;95326.28;;;5.21;100.00
12775;BME280;6451;42.630;23.382;2022-12-29T08:15:38;95372.88;;;5.59;100.00
12775;BME280;6451;42.630;23.382;2022-12-29T08:18:05;95378.50;;;5.63;100.00
12775;BME280;6451;42.630;23.382;2022-12-29T08:20:32;95387.66;;;5.62;100.00
12775;BME280;6451;42.630;23.382;2022-12-29T08:22:59;95393.22;;;5.71;100.00
12775;BME280;6451;42.630;23.382;2022-12-29T08:25:26;95371.44;;;5.67;100.00
12775;BME280;6451;42.630;23.382;2022-12-29T08:27:54;95377.84;;;5.71;100.00
12775;BME280;6451;42.630;23.382;2022-12-29T08:30:22;95377.41;;;5.64;100.00
12775;BME280;6451;42.630;23.382;2022-12-29T08:32:49;95359.41;;;5.59;100.00
12775;BME280;6451;42.630;23.382;2022-12-29T08:35:17;95373.72;;;5.79;100.00
12775;BME280;6451;42.630;23.382;2022-12-29T08:37:43;95360.91;;;5.90;100.00
12775;BME280;6451;42.630;23.382;2022-12-29T08:40:11;95366.88;;;5.86;100.00
12775;BME280;6451;42.630;23.382;2022-12-29T08:42:39;95334.25;;;5.88;100.00
12775;BME280;6451;42.630;23.382;2022-12-29T08:45:09;95368.06;;;6.18;100.00
12775;BME280;6451;42.630;23.382;2022-12-29T08:47:36;95360.41;;;5.88;100.00
12775;BME280;6451;42.630;23.382;2022-12-29T08:50:03;95376.44;;;6.17;100.00
12775;BME280;6451;42.630;23.382;2022-12-29T08:52:30;95378.75;;;6.04;100.00
12775;BME280;6451;42.630;23.382;2022-12-29T08:54:57;95336.09;;;6.11;100.00
12775;BME280;6451;42.630;23.382;2022-12-29T08:57:24;95344.47;;;6.29;100.00
12775;BME280;6451;42.630;23.382;2022-12-29T08:59:51;95362.41;;;6.52;100.00
12775;BME280;6451;42.630;23.382;2022-12-29T09:02:20;95362.97;;;6.68;100.00
12775;BME280;6451;42.630;23.382;2022-12-29T09:04:46;95364.31;;;6.52;100.00
12775;BME280;6451;42.630;23.382;2022-12-29T09:07:13;95360.75;;;6.70;100.00
12775;BME280;6451;42.630;23.382;2022-12-29T09:09:40;95358.75;;;6.43;100.00
12775;BME280;6451;42.630;23.382;2022-12-29T09:12:07;95352.03;;;6.27;100.00
12775;BME280;6451;42.630;23.382;2022-12-29T09:14:34;95349.31;;;6.46;100.00
12775;BME280;6451;42.630;23.382;2022-12-29T09:17:01;95353.47;;;6.71;100.00
12775;BME280;6451;42.630;23.382;2022-12-29T09:19:46;95337.78;;;6.73;100.00
12775;BME280;6451;42.630;23.382;2022-12-29T09:22:13;95310.09;;;6.67;100.00
12775;BME280;6451;42.630;23.382;2022-12-29T09:24:40;95326.09;;;6.77;100.00
12775;BME280;6451;42.630;23.382;2022-12-29T09:27:06;95338.00;;;6.76;100.00
12775;BME280;6451;42.630;23.382;2022-12-29T09:29:33;95313.19;;;6.74;100.00
12775;BME280;6451;42.630;23.382;2022-12-29T09:32:01;95336.22;;;6.99;100.00
12775;BME280;6451;42.630;23.382;2022-12-29T09:34:28;95314.91;;;6.70;100.00
12775;BME280;6451;42.630;23.382;2022-12-29T09:36:56;95330.00;;;6.85;100.00
12775;BME280;6451;42.630;23.382;2022-12-29T09:39:23;95339.19;;;6.97;100.00
12775;BME280;6451;42.630;23.382;2022-12-29T09:41:58;95331.44;;;7.10;100.00
12775;BME280;6451;42.630;23.382;2022-12-29T09:44:33;95335.81;;;7.19;100.00
12775;BME280;6451;42.630;23.382;2022-12-29T09:47:11;95243.69;;;6.71;100.00
12775;BME280;6451;42.630;23.382;2022-12-29T09:49:43;95320.41;;;7.47;100.00
12775;BME280;6451;42.630;23.382;2022-12-29T09:52:14;95302.81;;;7.50;100.00
12775;BME280;6451;42.630;23.382;2022-12-29T09:54:48;95312.59;;;7.60;100.00
12775;BME280;6451;42.630;23.382;2022-12-29T09:57:21;95312.44;;;7.78;100.00
12775;BME280;6451;42.630;23.382;2022-12-29T09:59:54;95315.31;;;7.60;100.00
12775;BME280;6451;42.630;23.382;2022-12-29T10:02:32;95283.22;;;7.44;100.00
12775;BME280;6451;42.630;23.382;2022-12-29T10:05:01;95293.50;;;7.56;100.00
12775;BME280;6451;42.630;23.382;2022-12-29T10:07:38;95294.50;;;7.60;100.00
12775;BME280;6451;42.630;23.382;2022-12-29T10:10:23;95286.84;;;7.76;100.00
12775;BME280;6451;42.630;23.382;2022-12-29T10:13:01;95291.50;;;7.98;100.00
12775;BME280;6451;42.630;23.382;2022-12-29T10:15:53;95284.41;;;7.88;100.00
12775;BME280;6451;42.630;23.382;2022-12-29T10:18:42;95276.34;;;7.74;100.00
12775;BME280;6451;42.630;23.382;2022-12-29T10:21:20;95257.16;;;7.62;100.00
12775;BME280;6451;42.630;23.382;2022-12-29T10:23:53;95281.56;;;7.71;100.00
12775;BME280;6451;42.630;23.382;2022-12-29T10:26:23;95277.38;;;7.65;100.00
12775;BME280;6451;42.630;23.382;2022-12-29T10:28:58;95287.22;;;7.83;100.00
12775;BME280;6451;42.630;23.382;2022-12-29T10:31:33;95260.56;;;7.68;100.00
12775;BME280;6451;42.630;23.382;2022-12-29T10:34:10;95193.22;;;7.35;100.00
12775;BME280;6451;42.630;23.382;2022-12-29T10:36:43;95271.22;;;7.73;100.00
12775;BME280;6451;42.630;23.382;2022-12-29T10:39:21;95276.22;;;7.79;100.00
12775;BME280;6451;42.630;23.382;2022-12-29T10:41:52;95265.16;;;7.90;100.00
12775;BME280;6451;42.630;23.382;2022-12-29T10:44:21;95264.91;;;8.14;100.00
12775;BME280;6451;42.630;23.382;2022-12-29T10:46:54;95265.44;;;8.24;100.00
12775;BME280;6451;42.630;23.382;2022-12-29T10:49:23;95240.09;;;8.20;100.00
12775;BME280;6451;42.630;23.382;2022-12-29T10:51:56;95221.44;;;8.32;100.00
12775;BME280;6451;42.630;23.382;2022-12-29T10:54:30;95228.44;;;8.11;100.00
12775;BME280;6451;42.630;23.382;2022-12-29T10:57:01;95249.25;;;8.33;100.00
12775;BME280;6451;42.630;23.382;2022-12-29T10:59:31;95256.56;;;8.32;100.00
12775;BME280;6451;42.630;23.382;2022-12-29T11:02:10;95228.06;;;8.49;100.00
12775;BME280;6451;42.630;23.382;2022-12-29T11:04:47;95249.22;;;8.47;100.00
12775;BME280;6451;42.630;23.382;2022-12-29T11:07:19;95209.09;;;8.40;100.00
12775;BME280;6451;42.630;23.382;2022-12-29T11:09:48;95231.19;;;8.73;100.00
12775;BME280;6451;42.630;23.382;2022-12-29T11:12:21;95201.72;;;8.63;100.00
12775;BME280;6451;42.630;23.382;2022-12-29T11:15:01;95140.91;;;8.21;100.00
12775;BME280;6451;42.630;23.382;2022-12-29T11:17:28;95219.19;;;8.57;100.00
12775;BME280;6451;42.630;23.382;2022-12-29T11:19:55;95204.94;;;8.43;100.00
12775;BME280;6451;42.630;23.382;2022-12-29T11:22:23;95190.72;;;8.59;100.00
12775;BME280;6451;42.630;23.382;2022-12-29T11:24:53;95222.91;;;8.70;100.00
12775;BME280;6451;42.630;23.382;2022-12-29T11:27:22;95224.03;;;8.69;100.00
12775;BME280;6451;42.630;23.382;2022-12-29T11:29:51;95141.94;;;8.42;100.00
12775;BME280;6451;42.630;23.382;2022-12-29T11:32:21;95190.47;;;8.78;100.00
12775;BME280;6451;42.630;23.382;2022-12-29T11:34:48;95208.47;;;8.83;100.00
12775;BME280;6451;42.630;23.382;2022-12-29T11:37:18;95203.09;;;8.91;100.00
12775;BME280;6451;42.630;23.382;2022-12-29T11:39:52;95218.56;;;9.08;100.00
12775;BME280;6451;42.630;23.382;2022-12-29T11:42:32;95198.50;;;9.09;100.00
12775;BME280;6451;42.630;23.382;2022-12-29T11:45:04;95209.34;;;9.18;100.00
12775;BME280;6451;42.630;23.382;2022-12-29T11:47:33;95204.59;;;9.24;100.00
12775;BME280;6451;42.630;23.382;2022-12-29T11:50:03;95167.44;;;8.89;100.00
12775;BME280;6451;42.630;23.382;2022-12-29T11:52:33;95195.34;;;9.25;100.00
12775;BME280;6451;42.630;23.382;2022-12-29T11:55:05;95197.06;;;9.03;100.00
12775;BME280;6451;42.630;23.382;2022-12-29T11:57:35;95187.81;;;9.04;100.00
12775;BME280;6451;42.630;23.382;2022-12-29T12:00:16;95190.25;;;9.23;100.00
12775;BME280;6451;42.630;23.382;2022-12-29T12:02:51;95181.16;;;9.28;100.00
12775;BME280;6451;42.630;23.382;2022-12-29T12:05:30;95198.53;;;9.27;100.00
12775;BME280;6451;42.630;23.382;2022-12-29T12:08:02;95194.69;;;9.19;100.00
12775;BME280;6451;42.630;23.382;2022-12-29T12:10:38;95164.09;;;9.10;100.00
12775;BME280;6451;42.630;23.382;2022-12-29T12:13:23;95194.09;;;9.48;100.00
12775;BME280;6451;42.630;23.382;2022-12-29T12:15:57;95127.47;;;9.04;100.00
12775;BME280;6451;42.630;23.382;2022-12-29T12:18:38;95186.75;;;9.31;100.00
12775;BME280;6451;42.630;23.382;2022-12-29T12:21:16;95132.25;;;8.98;100.00
12775;BME280;6451;42.630;23.382;2022-12-29T12:24:00;95185.50;;;9.29;100.00
12775;BME280;6451;42.630;23.382;2022-12-29T12:26:37;95177.06;;;9.39;100.00
12775;BME280;6451;42.630;23.382;2022-12-29T12:29:12;95154.13;;;9.45;100.00
12775;BME280;6451;42.630;23.382;2022-12-29T12:31:45;95125.88;;;9.20;100.00
12775;BME280;6451;42.630;23.382;2022-12-29T12:34:17;95176.91;;;9.53;100.00
12775;BME280;6451;42.630;23.382;2022-12-29T12:37:10;95177.22;;;9.60;100.00
12775;BME280;6451;42.630;23.382;2022-12-29T12:39:49;95163.50;;;9.47;100.00
12775;BME280;6451;42.630;23.382;2022-12-29T12:42:30;95167.00;;;9.57;100.00
12775;BME280;6451;42.630;23.382;2022-12-29T12:45:20;95172.44;;;9.39;100.00
12775;BME280;6451;42.630;23.382;2022-12-29T12:47:58;95169.41;;;9.41;100.00
12775;BME280;6451;42.630;23.382;2022-12-29T12:50:43;95175.47;;;9.29;100.00
12775;BME280;6451;42.630;23.382;2022-12-29T12:53:33;95162.84;;;9.25;100.00
12775;BME280;6451;42.630;23.382;2022-12-29T12:56:16;95164.63;;;9.29;100.00
12775;BME280;6451;42.630;23.382;2022-12-29T12:58:54;95169.88;;;9.43;100.00
12775;BME280;6451;42.630;23.382;2022-12-29T13:01:35;95161.28;;;9.32;100.00
12775;BME280;6451;42.630;23.382;2022-12-29T13:04:19;95177.38;;;9.37;100.00
12775;BME280;6451;42.630;23.382;2022-12-29T13:06:57;95173.88;;;9.45;100.00
12775;BME280;6451;42.630;23.382;2022-12-29T13:09:53;95174.66;;;9.37;100.00
12775;BME280;6451;42.630;23.382;2022-12-29T13:12:34;95168.13;;;9.30;100.00
12775;BME280;6451;42.630;23.382;2022-12-29T13:15:17;95169.06;;;9.25;100.00
12775;BME280;6451;42.630;23.382;2022-12-29T13:17:50;95166.81;;;9.18;100.00
12775;BME280;6451;42.630;23.382;2022-12-29T13:20:25;95166.69;;;9.15;100.00
12775;BME280;6451;42.630;23.382;2022-12-29T13:22:59;95176.84;;;9.09;100.00
12775;BME280;6451;42.630;23.382;2022-12-29T13:25:35;95177.66;;;9.10;100.00